sensor_id;sensor_type;location;lat;lon;timestamp;pressure;altitude;pressure_sealevel;temperature;humidity
59767;BME280;46248;58.364;25.582;2023-07-31T00:02:39;99771.44;;;16.58;100.00
59767;BME280;46248;58.364;25.582;2023-07-31T00:06:01;99776.59;;;16.60;100.00
59767;BME280;46248;58.364;25.582;2023-07-31T00:09:24;99768.53;;;16.61;100.00
59767;BME280;46248;58.364;25.582;2023-07-31T00:12:45;99771.19;;;16.61;100.00
59767;BME280;46248;58.364;25.582;2023-07-31T00:16:07;99767.56;;;16.62;100.00
59767;BME280;46248;58.364;25.582;2023-07-31T00:19:29;99776.31;;;16.63;100.00
59767;BME280;46248;58.364;25.582;2023-07-31T00:22:51;99777.28;;;16.62;100.00
59767;BME280;46248;58.364;25.582;2023-07-31T00:26:15;99770.59;;;16.58;100.00
59767;BME280;46248;58.364;25.582;2023-07-31T00:29:37;99769.91;;;16.56;100.00
59767;BME280;46248;58.364;25.582;2023-07-31T00:32:58;99767.25;;;16.56;100.00
59767;BME280;46248;58.364;25.582;2023-07-31T00:36:20;99772.56;;;16.56;100.00
59767;BME280;46248;58.364;25.582;2023-07-31T00:39:42;99770.03;;;16.54;100.00
59767;BME280;46248;58.364;25.582;2023-07-31T00:43:05;99772.94;;;16.51;100.00
59767;BME280;46248;58.364;25.582;2023-07-31T00:46:26;99771.66;;;16.45;100.00
59767;BME280;46248;58.364;25.582;2023-07-31T00:49:48;99780.31;;;16.47;100.00
59767;BME280;46248;58.364;25.582;2023-07-31T00:53:10;99776.94;;;16.45;100.00
59767;BME280;46248;58.364;25.582;2023-07-31T00:56:32;99776.13;;;16.45;100.00
59767;BME280;46248;58.364;25.582;2023-07-31T00:59:56;99788.22;;;16.38;100.00
59767;BME280;46248;58.364;25.582;2023-07-31T01:03:18;99783.72;;;16.29;100.00
59767;BME280;46248;58.364;25.582;2023-07-31T01:06:51;99778.72;;;16.25;100.00
59767;BME280;46248;58.364;25.582;2023-07-31T01:10:16;99773.69;;;16.22;100.00
59767;BME280;46248;58.364;25.582;2023-07-31T01:13:42;99784.53;;;16.19;100.00
59767;BME280;46248;58.364;25.582;2023-07-31T01:17:05;99790.06;;;16.16;100.00
59767;BME280;46248;58.364;25.582;2023-07-31T01:20:29;99795.72;;;16.12;100.00
59767;BME280;46248;58.364;25.582;2023-07-31T01:24:16;99791.81;;;16.06;100.00
59767;BME280;46248;58.364;25.582;2023-07-31T01:27:46;99794.16;;;15.99;100.00
59767;BME280;46248;58.364;25.582;2023-07-31T01:31:16;99797.03;;;15.96;100.00
59767;BME280;46248;58.364;25.582;2023-07-31T01:34:39;99806.88;;;15.94;100.00
59767;BME280;46248;58.364;25.582;2023-07-31T01:38:04;99800.22;;;15.90;100.00
59767;BME280;46248;58.364;25.582;2023-07-31T01:41:26;99799.22;;;15.91;100.00
59767;BME280;46248;58.364;25.582;2023-07-31T01:44:49;99790.88;;;15.86;100.00
59767;BME280;46248;58.364;25.582;2023-07-31T01:48:11;99802.28;;;15.87;100.00
59767;BME280;46248;58.364;25.582;2023-07-31T01:51:33;99803.00;;;15.89;100.00
59767;BME280;46248;58.364;25.582;2023-07-31T01:54:55;99794.47;;;15.85;100.00
59767;BME280;46248;58.364;25.582;2023-07-31T01:58:17;99804.91;;;15.87;100.00
59767;BME280;46248;58.364;25.582;2023-07-31T02:01:40;99802.13;;;15.88;100.00
59767;BME280;46248;58.364;25.582;2023-07-31T02:05:02;99797.13;;;15.85;100.00
59767;BME280;46248;58.364;25.582;2023-07-31T02:08:24;99806.31;;;15.91;100.00
59767;BME280;46248;58.364;25.582;2023-07-31T02:11:45;99806.06;;;15.94;100.00
59767;BME280;46248;58.364;25.582;2023-07-31T02:15:20;99805.13;;;15.95;100.00
59767;BME280;46248;58.364;25.582;2023-07-31T02:18:41;99805.94;;;15.95;100.00
59767;BME280;46248;58.364;25.582;2023-07-31T02:22:03;99800.66;;;15.95;100.00
59767;BME280;46248;58.364;25.582;2023-07-31T02:25:25;99809.00;;;16.00;100.00
59767;BME280;46248;58.364;25.582;2023-07-31T02:28:47;99805.94;;;15.95;100.00
59767;BME280;46248;58.364;25.582;2023-07-31T02:32:10;99807.34;;;15.99;100.00
59767;BME280;46248;58.364;25.582;2023-07-31T02:35:32;99803.72;;;16.00;100.00
59767;BME280;46248;58.364;25.582;2023-07-31T02:38:54;99803.72;;;16.00;100.00
59767;BME280;46248;58.364;25.582;2023-07-31T02:42:15;99807.91;;;16.03;100.00
59767;BME280;46248;58.364;25.582;2023-07-31T02:45:37;99804.72;;;15.99;100.00
59767;BME280;46248;58.364;25.582;2023-07-31T02:49:00;99810.81;;;16.00;100.00
59767;BME280;46248;58.364;25.582;2023-07-31T02:52:22;99809.00;;;16.00;100.00
59767;BME280;46248;58.364;25.582;2023-07-31T02:55:44;99818.88;;;15.98;100.00
59767;BME280;46248;58.364;25.582;2023-07-31T02:59:06;99808.44;;;15.97;100.00
59767;BME280;46248;58.364;25.582;2023-07-31T03:02:27;99821.53;;;15.98;100.00
59767;BME280;46248;58.364;25.582;2023-07-31T03:05:50;99813.59;;;15.98;100.00
59767;BME280;46248;58.364;25.582;2023-07-31T03:09:13;99824.84;;;16.00;100.00
59767;BME280;46248;58.364;25.582;2023-07-31T03:12:34;99822.22;;;16.00;100.00
59767;BME280;46248;58.364;25.582;2023-07-31T03:15:55;99829.31;;;16.00;100.00
59767;BME280;46248;58.364;25.582;2023-07-31T03:19:17;99825.84;;;15.99;100.00
59767;BME280;46248;58.364;25.582;2023-07-31T03:22:41;99819.56;;;16.00;100.00
59767;BME280;46248;58.364;25.582;2023-07-31T03:26:07;99829.19;;;16.01;100.00
59767;BME280;46248;58.364;25.582;2023-07-31T03:29:28;99832.41;;;16.05;100.00
59767;BME280;46248;58.364;25.582;2023-07-31T03:32:50;99833.38;;;16.04;100.00
59767;BME280;46248;58.364;25.582;2023-07-31T03:36:12;99831.00;;;16.01;100.00
59767;BME280;46248;58.364;25.582;2023-07-31T03:39:35;99827.38;;;16.02;100.00
59767;BME280;46248;58.364;25.582;2023-07-31T03:42:57;99821.94;;;16.03;100.00
59767;BME280;46248;58.364;25.582;2023-07-31T03:46:18;99824.34;;;16.07;100.00
59767;BME280;46248;58.364;25.582;2023-07-31T03:49:40;99822.16;;;16.12;100.00
59767;BME280;46248;58.364;25.582;2023-07-31T03:53:02;99828.13;;;16.14;100.00
59767;BME280;46248;58.364;25.582;2023-07-31T03:56:25;99836.53;;;16.19;100.00
59767;BME280;46248;58.364;25.582;2023-07-31T03:59:46;99829.28;;;16.21;100.00
59767;BME280;46248;58.364;25.582;2023-07-31T04:03:08;99827.09;;;16.26;100.00
59767;BME280;46248;58.364;25.582;2023-07-31T04:06:30;99821.91;;;16.24;100.00
59767;BME280;46248;58.364;25.582;2023-07-31T04:09:52;99823.63;;;16.25;100.00
59767;BME280;46248;58.364;25.582;2023-07-31T04:13:15;99825.28;;;16.26;100.00
59767;BME280;46248;58.364;25.582;2023-07-31T04:16:36;99820.00;;;16.26;100.00
59767;BME280;46248;58.364;25.582;2023-07-31T04:19:59;99831.13;;;16.30;100.00
59767;BME280;46248;58.364;25.582;2023-07-31T04:23:20;99825.47;;;16.35;100.00
59767;BME280;46248;58.364;25.582;2023-07-31T04:26:42;99822.97;;;16.43;100.00
59767;BME280;46248;58.364;25.582;2023-07-31T04:30:07;99820.50;;;16.51;100.00
59767;BME280;46248;58.364;25.582;2023-07-31T04:33:29;99831.53;;;16.56;100.00
59767;BME280;46248;58.364;25.582;2023-07-31T04:36:50;99826.81;;;16.60;100.00
59767;BME280;46248;58.364;25.582;2023-07-31T04:40:12;99828.47;;;16.61;100.00
59767;BME280;46248;58.364;25.582;2023-07-31T04:43:34;99824.59;;;16.65;100.00
59767;BME280;46248;58.364;25.582;2023-07-31T04:47:01;99838.94;;;16.72;100.00
59767;BME280;46248;58.364;25.582;2023-07-31T04:50:23;99828.69;;;16.79;100.00
59767;BME280;46248;58.364;25.582;2023-07-31T04:53:45;99824.41;;;16.87;100.00
59767;BME280;46248;58.364;25.582;2023-07-31T04:57:09;99827.59;;;16.91;100.00
59767;BME280;46248;58.364;25.582;2023-07-31T05:00:31;99832.78;;;17.02;100.00
59767;BME280;46248;58.364;25.582;2023-07-31T05:03:54;99832.78;;;17.12;100.00
59767;BME280;46248;58.364;25.582;2023-07-31T05:07:16;99833.34;;;17.15;100.00
59767;BME280;46248;58.364;25.582;2023-07-31T05:10:38;99828.50;;;17.21;100.00
59767;BME280;46248;58.364;25.582;2023-07-31T05:13:59;99822.66;;;17.17;100.00
59767;BME280;46248;58.364;25.582;2023-07-31T05:17:21;99824.06;;;17.31;100.00
59767;BME280;46248;58.364;25.582;2023-07-31T05:20:44;99824.88;;;17.41;100.00
59767;BME280;46248;58.364;25.582;2023-07-31T05:24:06;99816.66;;;17.63;100.00
59767;BME280;46248;58.364;25.582;2023-07-31T05:27:28;99822.63;;;17.95;100.00
59767;BME280;46248;58.364;25.582;2023-07-31T05:30:49;99822.66;;;18.32;100.00
59767;BME280;46248;58.364;25.582;2023-07-31T05:34:11;99821.84;;;18.59;99.59
59767;BME280;46248;58.364;25.582;2023-07-31T05:37:34;99826.25;;;18.68;98.36
59767;BME280;46248;58.364;25.582;2023-07-31T05:40:56;99831.16;;;18.73;97.74
59767;BME280;46248;58.364;25.582;2023-07-31T05:44:17;99841.31;;;18.77;98.22
59767;BME280;46248;58.364;25.582;2023-07-31T05:47:39;99834.59;;;18.83;97.72
59767;BME280;46248;58.364;25.582;2023-07-31T05:51:01;99825.03;;;18.90;97.41
59767;BME280;46248;58.364;25.582;2023-07-31T05:54:24;99829.44;;;18.99;94.92
59767;BME280;46248;58.364;25.582;2023-07-31T05:57:46;99833.78;;;19.01;95.55
59767;BME280;46248;58.364;25.582;2023-07-31T06:01:08;99822.63;;;18.97;94.18
59767;BME280;46248;58.364;25.582;2023-07-31T06:04:29;99826.56;;;18.93;94.76
59767;BME280;46248;58.364;25.582;2023-07-31T06:07:51;99833.00;;;18.90;94.58
59767;BME280;46248;58.364;25.582;2023-07-31T06:11:14;99835.66;;;18.90;95.75
59767;BME280;46248;58.364;25.582;2023-07-31T06:14:36;99835.22;;;18.95;96.09
59767;BME280;46248;58.364;25.582;2023-07-31T06:17:58;99849.16;;;18.97;95.09
59767;BME280;46248;58.364;25.582;2023-07-31T06:21:22;99852.69;;;18.88;94.94
59767;BME280;46248;58.364;25.582;2023-07-31T06:24:44;99846.03;;;18.84;94.49
59767;BME280;46248;58.364;25.582;2023-07-31T06:28:07;99855.66;;;18.85;94.38
59767;BME280;46248;58.364;25.582;2023-07-31T06:31:29;99859.28;;;18.84;94.47
59767;BME280;46248;58.364;25.582;2023-07-31T06:34:51;99856.22;;;18.88;94.49
59767;BME280;46248;58.364;25.582;2023-07-31T06:38:14;99856.75;;;18.92;93.83
59767;BME280;46248;58.364;25.582;2023-07-31T06:41:36;99845.22;;;19.01;93.65
59767;BME280;46248;58.364;25.582;2023-07-31T06:44:59;99846.69;;;19.13;92.70
59767;BME280;46248;58.364;25.582;2023-07-31T06:48:21;99853.75;;;19.22;92.37
59767;BME280;46248;58.364;25.582;2023-07-31T06:51:42;99850.88;;;19.34;91.64
59767;BME280;46248;58.364;25.582;2023-07-31T06:55:16;99855.34;;;19.51;90.19
59767;BME280;46248;58.364;25.582;2023-07-31T06:58:39;99858.38;;;19.56;89.95
59767;BME280;46248;58.364;25.582;2023-07-31T07:02:02;99860.53;;;19.71;89.72
59767;BME280;46248;58.364;25.582;2023-07-31T07:05:26;99859.88;;;19.95;90.36
59767;BME280;46248;58.364;25.582;2023-07-31T07:08:48;99853.41;;;20.23;88.63
59767;BME280;46248;58.364;25.582;2023-07-31T07:12:09;99856.59;;;20.53;86.74
59767;BME280;46248;58.364;25.582;2023-07-31T07:15:31;99855.00;;;20.68;85.77
59767;BME280;46248;58.364;25.582;2023-07-31T07:18:54;99858.72;;;20.49;80.91
59767;BME280;46248;58.364;25.582;2023-07-31T07:22:24;99858.22;;;20.46;84.73
59767;BME280;46248;58.364;25.582;2023-07-31T07:25:46;99863.69;;;20.44;83.83
59767;BME280;46248;58.364;25.582;2023-07-31T07:29:08;99858.78;;;20.31;84.61
59767;BME280;46248;58.364;25.582;2023-07-31T07:32:31;99866.09;;;20.29;84.69
59767;BME280;46248;58.364;25.582;2023-07-31T07:35:53;99869.63;;;20.38;84.54
59767;BME280;46248;58.364;25.582;2023-07-31T07:39:15;99860.94;;;20.54;83.77
59767;BME280;46248;58.364;25.582;2023-07-31T07:42:37;99863.53;;;20.46;81.24
59767;BME280;46248;58.364;25.582;2023-07-31T07:45:58;99871.72;;;20.26;82.16
59767;BME280;46248;58.364;25.582;2023-07-31T07:49:20;99878.16;;;20.16;82.83
59767;BME280;46248;58.364;25.582;2023-07-31T07:52:44;99879.81;;;20.17;84.35
59767;BME280;46248;58.364;25.582;2023-07-31T07:56:05;99878.19;;;20.24;84.29
59767;BME280;46248;58.364;25.582;2023-07-31T07:59:27;99876.72;;;20.29;83.77
59767;BME280;46248;58.364;25.582;2023-07-31T08:02:49;99878.50;;;20.21;84.10
59767;BME280;46248;58.364;25.582;2023-07-31T08:06:11;99872.50;;;20.19;84.99
59767;BME280;46248;58.364;25.582;2023-07-31T08:09:34;99878.03;;;20.25;85.31
59767;BME280;46248;58.364;25.582;2023-07-31T08:12:56;99867.66;;;20.40;85.11
59767;BME280;46248;58.364;25.582;2023-07-31T08:16:18;99864.78;;;20.59;84.70
59767;BME280;46248;58.364;25.582;2023-07-31T08:19:40;99874.16;;;20.72;82.45
59767;BME280;46248;58.364;25.582;2023-07-31T08:23:01;99871.47;;;20.72;82.87
59767;BME280;46248;58.364;25.582;2023-07-31T08:26:24;99872.22;;;20.82;82.89
59767;BME280;46248;58.364;25.582;2023-07-31T08:29:46;99868.63;;;21.08;82.08
59767;BME280;46248;58.364;25.582;2023-07-31T08:33:08;99868.00;;;21.30;81.48
59767;BME280;46248;58.364;25.582;2023-07-31T08:36:29;99867.53;;;21.35;81.03
59767;BME280;46248;58.364;25.582;2023-07-31T08:39:51;99858.69;;;21.34;81.14
59767;BME280;46248;58.364;25.582;2023-07-31T08:43:15;99861.06;;;21.37;80.50
59767;BME280;46248;58.364;25.582;2023-07-31T08:46:37;99860.53;;;21.34;80.29
59767;BME280;46248;58.364;25.582;2023-07-31T08:50:00;99859.75;;;21.49;80.60
59767;BME280;46248;58.364;25.582;2023-07-31T08:53:23;99857.41;;;21.46;79.42
59767;BME280;46248;58.364;25.582;2023-07-31T08:56:45;99853.25;;;21.52;79.60
59767;BME280;46248;58.364;25.582;2023-07-31T09:00:10;99855.94;;;21.77;78.05
59767;BME280;46248;58.364;25.582;2023-07-31T09:03:34;99854.44;;;21.82;77.95
59767;BME280;46248;58.364;25.582;2023-07-31T09:07:00;99868.72;;;21.81;77.17
59767;BME280;46248;58.364;25.582;2023-07-31T09:10:24;99859.75;;;21.82;77.67
59767;BME280;46248;58.364;25.582;2023-07-31T09:13:46;99864.56;;;21.95;76.05
59767;BME280;46248;58.364;25.582;2023-07-31T09:17:10;99862.06;;;21.93;76.56
59767;BME280;46248;58.364;25.582;2023-07-31T09:20:33;99861.56;;;21.90;76.59
59767;BME280;46248;58.364;25.582;2023-07-31T09:23:55;99867.09;;;21.88;75.50
59767;BME280;46248;58.364;25.582;2023-07-31T09:27:16;99873.25;;;21.89;77.07
59767;BME280;46248;58.364;25.582;2023-07-31T09:30:46;99866.38;;;22.11;76.16
59767;BME280;46248;58.364;25.582;2023-07-31T09:34:10;99862.38;;;22.23;76.08
59767;BME280;46248;58.364;25.582;2023-07-31T09:37:34;99860.88;;;22.37;75.77
59767;BME280;46248;58.364;25.582;2023-07-31T09:40:58;99858.78;;;22.63;74.82
59767;BME280;46248;58.364;25.582;2023-07-31T09:44:20;99859.53;;;22.80;72.76
59767;BME280;46248;58.364;25.582;2023-07-31T09:47:46;99855.03;;;22.81;73.43
59767;BME280;46248;58.364;25.582;2023-07-31T09:51:10;99858.22;;;22.84;73.21
59767;BME280;46248;58.364;25.582;2023-07-31T09:54:32;99844.78;;;23.01;73.23
59767;BME280;46248;58.364;25.582;2023-07-31T09:57:54;99839.53;;;23.16;70.84
59767;BME280;46248;58.364;25.582;2023-07-31T10:01:18;99843.47;;;23.28;70.05
59767;BME280;46248;58.364;25.582;2023-07-31T10:04:42;99846.72;;;23.15;67.84
59767;BME280;46248;58.364;25.582;2023-07-31T10:08:09;99839.44;;;23.01;69.51
59767;BME280;46248;58.364;25.582;2023-07-31T10:11:34;99850.28;;;22.99;69.70
59767;BME280;46248;58.364;25.582;2023-07-31T10:14:59;99840.00;;;23.19;69.76
59767;BME280;46248;58.364;25.582;2023-07-31T10:18:21;99845.09;;;23.29;69.07
59767;BME280;46248;58.364;25.582;2023-07-31T10:21:43;99842.63;;;23.27;69.63
59767;BME280;46248;58.364;25.582;2023-07-31T10:25:07;99850.66;;;23.27;68.80
59767;BME280;46248;58.364;25.582;2023-07-31T10:28:32;99854.31;;;23.26;67.44
59767;BME280;46248;58.364;25.582;2023-07-31T10:31:56;99851.69;;;23.41;69.10
59767;BME280;46248;58.364;25.582;2023-07-31T10:35:20;99851.97;;;23.54;68.15
59767;BME280;46248;58.364;25.582;2023-07-31T10:38:42;99849.69;;;23.43;67.76
59767;BME280;46248;58.364;25.582;2023-07-31T10:42:12;99848.91;;;23.35;67.45
59767;BME280;46248;58.364;25.582;2023-07-31T10:45:35;99839.06;;;23.35;68.19
59767;BME280;46248;58.364;25.582;2023-07-31T10:48:58;99836.13;;;23.68;66.81
59767;BME280;46248;58.364;25.582;2023-07-31T10:52:21;99843.66;;;23.87;64.39
59767;BME280;46248;58.364;25.582;2023-07-31T10:55:47;99837.03;;;23.83;65.94
59767;BME280;46248;58.364;25.582;2023-07-31T10:59:12;99840.38;;;23.85;64.17
59767;BME280;46248;58.364;25.582;2023-07-31T11:02:38;99835.66;;;23.87;65.55
59767;BME280;46248;58.364;25.582;2023-07-31T11:06:00;99834.84;;;24.02;64.03
59767;BME280;46248;58.364;25.582;2023-07-31T11:09:25;99845.53;;;24.02;64.79
59767;BME280;46248;58.364;25.582;2023-07-31T11:12:48;99828.88;;;23.99;65.34
59767;BME280;46248;58.364;25.582;2023-07-31T11:16:12;99838.34;;;24.02;63.80
59767;BME280;46248;58.364;25.582;2023-07-31T11:19:37;99838.63;;;23.92;63.97
59767;BME280;46248;58.364;25.582;2023-07-31T11:23:00;99842.41;;;23.98;64.82
59767;BME280;46248;58.364;25.582;2023-07-31T11:26:23;99838.09;;;24.12;64.20
59767;BME280;46248;58.364;25.582;2023-07-31T11:29:45;99837.75;;;24.15;64.11
59767;BME280;46248;58.364;25.582;2023-07-31T11:33:10;99842.81;;;24.10;64.13
59767;BME280;46248;58.364;25.582;2023-07-31T11:36:32;99843.03;;;23.85;64.13
59767;BME280;46248;58.364;25.582;2023-07-31T11:40:00;99862.41;;;23.64;63.86
59767;BME280;46248;58.364;25.582;2023-07-31T11:43:23;99849.84;;;23.42;64.63
59767;BME280;46248;58.364;25.582;2023-07-31T11:46:45;99852.75;;;23.32;65.29
59767;BME280;46248;58.364;25.582;2023-07-31T11:50:10;99853.94;;;23.29;65.36
59767;BME280;46248;58.364;25.582;2023-07-31T11:53:35;99845.66;;;23.24;65.32
59767;BME280;46248;58.364;25.582;2023-07-31T11:56:58;99847.44;;;23.32;65.52
59767;BME280;46248;58.364;25.582;2023-07-31T12:00:21;99849.28;;;23.54;66.74
59767;BME280;46248;58.364;25.582;2023-07-31T12:03:44;99849.81;;;23.50;64.93
59767;BME280;46248;58.364;25.582;2023-07-31T12:07:07;99839.47;;;23.47;64.72
59767;BME280;46248;58.364;25.582;2023-07-31T12:10:31;99834.66;;;23.65;65.08
59767;BME280;46248;58.364;25.582;2023-07-31T12:13:53;99830.84;;;23.83;64.23
59767;BME280;46248;58.364;25.582;2023-07-31T12:17:14;99827.47;;;23.89;62.54
59767;BME280;46248;58.364;25.582;2023-07-31T12:20:41;99826.25;;;23.76;61.47
59767;BME280;46248;58.364;25.582;2023-07-31T12:24:04;99817.78;;;23.65;62.03
59767;BME280;46248;58.364;25.582;2023-07-31T12:27:32;99819.78;;;23.71;62.65
59767;BME280;46248;58.364;25.582;2023-07-31T12:30:57;99817.66;;;23.81;61.96
59767;BME280;46248;58.364;25.582;2023-07-31T12:34:20;99814.09;;;23.89;62.32
59767;BME280;46248;58.364;25.582;2023-07-31T12:37:42;99807.66;;;23.98;62.36
59767;BME280;46248;58.364;25.582;2023-07-31T12:41:05;99809.97;;;24.01;60.29
59767;BME280;46248;58.364;25.582;2023-07-31T12:44:28;99807.00;;;23.96;61.28
59767;BME280;46248;58.364;25.582;2023-07-31T12:47:52;99799.06;;;23.88;61.54
59767;BME280;46248;58.364;25.582;2023-07-31T12:51:13;99806.59;;;23.84;61.92
59767;BME280;46248;58.364;25.582;2023-07-31T12:54:35;99803.09;;;23.84;60.92
59767;BME280;46248;58.364;25.582;2023-07-31T12:57:58;99800.44;;;23.84;62.23
59767;BME280;46248;58.364;25.582;2023-07-31T13:01:20;99805.59;;;23.85;60.27
59767;BME280;46248;58.364;25.582;2023-07-31T13:04:42;99810.66;;;23.80;59.72
59767;BME280;46248;58.364;25.582;2023-07-31T13:08:04;99811.22;;;23.75;60.58
59767;BME280;46248;58.364;25.582;2023-07-31T13:11:26;99807.88;;;23.73;60.40
59767;BME280;46248;58.364;25.582;2023-07-31T13:14:50;99814.16;;;23.81;61.02
59767;BME280;46248;58.364;25.582;2023-07-31T13:18:13;99807.47;;;23.85;61.06
59767;BME280;46248;58.364;25.582;2023-07-31T13:21:35;99824.50;;;23.84;61.20
59767;BME280;46248;58.364;25.582;2023-07-31T13:24:57;99819.88;;;23.77;61.13
59767;BME280;46248;58.364;25.582;2023-07-31T13:28:18;99823.19;;;23.80;61.10
59767;BME280;46248;58.364;25.582;2023-07-31T13:31:42;99820.06;;;23.76;59.60
59767;BME280;46248;58.364;25.582;2023-07-31T13:35:05;99832.34;;;23.62;59.51
59767;BME280;46248;58.364;25.582;2023-07-31T13:38:26;99839.84;;;23.44;59.92
59767;BME280;46248;58.364;25.582;2023-07-31T13:41:48;99829.56;;;23.32;60.56
59767;BME280;46248;58.364;25.582;2023-07-31T13:45:09;99822.59;;;23.23;60.16
59767;BME280;46248;58.364;25.582;2023-07-31T13:48:34;99837.16;;;23.21;60.63
59767;BME280;46248;58.364;25.582;2023-07-31T13:51:56;99841.88;;;23.11;61.27
59767;BME280;46248;58.364;25.582;2023-07-31T13:55:17;99846.63;;;23.00;62.11
59767;BME280;46248;58.364;25.582;2023-07-31T13:58:39;99854.53;;;22.77;62.83
59767;BME280;46248;58.364;25.582;2023-07-31T14:02:02;99853.06;;;22.75;64.11
59767;BME280;46248;58.364;25.582;2023-07-31T14:05:25;99850.84;;;22.86;64.21
59767;BME280;46248;58.364;25.582;2023-07-31T14:08:47;99846.97;;;22.97;63.82
59767;BME280;46248;58.364;25.582;2023-07-31T14:12:08;99846.88;;;23.14;63.52
59767;BME280;46248;58.364;25.582;2023-07-31T14:15:30;99844.03;;;23.15;62.52
59767;BME280;46248;58.364;25.582;2023-07-31T14:18:53;99839.41;;;23.09;61.78
59767;BME280;46248;58.364;25.582;2023-07-31T14:22:27;99834.22;;;23.07;62.72
59767;BME280;46248;58.364;25.582;2023-07-31T14:25:48;99834.53;;;23.13;62.90
59767;BME280;46248;58.364;25.582;2023-07-31T14:29:10;99826.88;;;23.32;63.69
59767;BME280;46248;58.364;25.582;2023-07-31T14:32:32;99815.38;;;23.55;61.81
59767;BME280;46248;58.364;25.582;2023-07-31T14:35:53;99813.81;;;23.61;61.11
59767;BME280;46248;58.364;25.582;2023-07-31T14:39:17;99814.63;;;23.69;60.71
59767;BME280;46248;58.364;25.582;2023-07-31T14:42:39;99803.59;;;23.64;59.96
59767;BME280;46248;58.364;25.582;2023-07-31T14:46:01;99806.59;;;23.69;60.46
59767;BME280;46248;58.364;25.582;2023-07-31T14:49:22;99805.03;;;23.75;60.28
59767;BME280;46248;58.364;25.582;2023-07-31T14:52:45;99803.19;;;23.75;60.46
59767;BME280;46248;58.364;25.582;2023-07-31T14:56:08;99792.44;;;23.61;60.59
59767;BME280;46248;58.364;25.582;2023-07-31T14:59:29;99801.38;;;23.68;59.35
59767;BME280;46248;58.364;25.582;2023-07-31T15:02:51;99796.25;;;23.66;58.51
59767;BME280;46248;58.364;25.582;2023-07-31T15:06:13;99803.94;;;23.69;57.63
59767;BME280;46248;58.364;25.582;2023-07-31T15:09:34;99805.97;;;23.59;59.14
59767;BME280;46248;58.364;25.582;2023-07-31T15:12:58;99799.03;;;23.50;59.24
59767;BME280;46248;58.364;25.582;2023-07-31T15:16:21;99805.34;;;23.57;60.05
59767;BME280;46248;58.364;25.582;2023-07-31T15:19:43;99800.41;;;23.46;59.32
59767;BME280;46248;58.364;25.582;2023-07-31T15:23:05;99809.41;;;23.45;58.82
59767;BME280;46248;58.364;25.582;2023-07-31T15:26:26;99813.84;;;23.38;59.12
59767;BME280;46248;58.364;25.582;2023-07-31T15:29:50;99821.44;;;23.26;60.05
59767;BME280;46248;58.364;25.582;2023-07-31T15:33:13;99817.84;;;23.11;61.33
59767;BME280;46248;58.364;25.582;2023-07-31T15:36:34;99819.94;;;22.92;62.58
59767;BME280;46248;58.364;25.582;2023-07-31T15:39:56;99829.13;;;22.90;62.66
59767;BME280;46248;58.364;25.582;2023-07-31T15:43:18;99832.63;;;22.90;62.27
59767;BME280;46248;58.364;25.582;2023-07-31T15:46:42;99831.50;;;22.84;62.12
59767;BME280;46248;58.364;25.582;2023-07-31T15:50:04;99822.84;;;22.82;62.32
59767;BME280;46248;58.364;25.582;2023-07-31T15:53:26;99830.44;;;22.62;63.17
59767;BME280;46248;58.364;25.582;2023-07-31T15:56:48;99833.31;;;22.45;63.31
59767;BME280;46248;58.364;25.582;2023-07-31T16:00:10;99831.41;;;22.22;63.72
59767;BME280;46248;58.364;25.582;2023-07-31T16:03:33;99834.72;;;22.08;64.65
59767;BME280;46248;58.364;25.582;2023-07-31T16:06:55;99834.41;;;22.27;64.78
59767;BME280;46248;58.364;25.582;2023-07-31T16:10:17;99829.81;;;22.83;63.83
59767;BME280;46248;58.364;25.582;2023-07-31T16:13:38;99839.63;;;23.68;63.84
59767;BME280;46248;58.364;25.582;2023-07-31T16:17:00;99834.69;;;24.77;60.30
59767;BME280;46248;58.364;25.582;2023-07-31T16:20:25;99833.56;;;25.23;58.56
59767;BME280;46248;58.364;25.582;2023-07-31T16:23:47;99832.31;;;25.40;58.26
59767;BME280;46248;58.364;25.582;2023-07-31T16:27:09;99808.22;;;25.68;58.29
59767;BME280;46248;58.364;25.582;2023-07-31T16:30:31;99831.28;;;25.84;57.28
59767;BME280;46248;58.364;25.582;2023-07-31T16:33:52;99837.63;;;26.39;56.19
59767;BME280;46248;58.364;25.582;2023-07-31T16:37:15;99836.75;;;26.67;53.24
59767;BME280;46248;58.364;25.582;2023-07-31T16:40:37;99836.50;;;26.55;51.86
59767;BME280;46248;58.364;25.582;2023-07-31T16:43:58;99837.28;;;26.49;54.39
59767;BME280;46248;58.364;25.582;2023-07-31T16:47:20;99835.06;;;26.59;52.31
59767;BME280;46248;58.364;25.582;2023-07-31T16:50:42;99826.97;;;26.53;50.76
59767;BME280;46248;58.364;25.582;2023-07-31T16:54:05;99829.03;;;26.50;50.00
59767;BME280;46248;58.364;25.582;2023-07-31T16:57:27;99840.72;;;26.36;51.81
59767;BME280;46248;58.364;25.582;2023-07-31T17:00:49;99829.19;;;26.42;51.55
59767;BME280;46248;58.364;25.582;2023-07-31T17:04:11;99828.47;;;26.27;51.63
59767;BME280;46248;58.364;25.582;2023-07-31T17:07:33;99837.84;;;26.10;50.82
59767;BME280;46248;58.364;25.582;2023-07-31T17:10:56;99838.00;;;26.01;51.88
59767;BME280;46248;58.364;25.582;2023-07-31T17:14:18;99844.06;;;25.82;52.65
59767;BME280;46248;58.364;25.582;2023-07-31T17:17:40;99847.88;;;25.73;53.63
59767;BME280;46248;58.364;25.582;2023-07-31T17:21:02;99845.41;;;25.78;52.52
59767;BME280;46248;58.364;25.582;2023-07-31T17:24:23;99857.13;;;25.92;52.87
59767;BME280;46248;58.364;25.582;2023-07-31T17:27:46;99857.34;;;25.90;53.58
59767;BME280;46248;58.364;25.582;2023-07-31T17:31:12;99855.97;;;25.79;52.31
59767;BME280;46248;58.364;25.582;2023-07-31T17:34:34;99855.09;;;25.51;53.88
59767;BME280;46248;58.364;25.582;2023-07-31T17:37:56;99852.94;;;25.40;53.96